sensor_id;sensor_type;location;lat;lon;timestamp;P1;durP1;ratioP1;P2;durP2;ratioP2
52470;SDS011;38382;53.160;7.026;2022-08-05T00:01:41;9.15;;;3.47;;
52470;SDS011;38382;53.160;7.026;2022-08-05T00:04:08;6.93;;;3.33;;
52470;SDS011;38382;53.160;7.026;2022-08-05T00:06:34;7.43;;;3.10;;
52470;SDS011;38382;53.160;7.026;2022-08-05T00:09:00;9.02;;;3.28;;
52470;SDS011;38382;53.160;7.026;2022-08-05T00:11:27;6.03;;;3.25;;
52470;SDS011;38382;53.160;7.026;2022-08-05T00:13:52;7.07;;;2.95;;
52470;SDS011;38382;53.160;7.026;2022-08-05T00:16:18;9.30;;;3.47;;
52470;SDS011;38382;53.160;7.026;2022-08-05T00:18:45;8.00;;;3.25;;
52470;SDS011;38382;53.160;7.026;2022-08-05T00:21:12;8.40;;;3.35;;
52470;SDS011;38382;53.160;7.026;2022-08-05T00:23:39;5.00;;;2.85;;
52470;SDS011;38382;53.160;7.026;2022-08-05T00:26:05;7.82;;;3.60;;
52470;SDS011;38382;53.160;7.026;2022-08-05T00:28:34;5.85;;;2.45;;
52470;SDS011;38382;53.160;7.026;2022-08-05T00:31:01;7.25;;;2.88;;
52470;SDS011;38382;53.160;7.026;2022-08-05T00:33:27;6.65;;;2.45;;
52470;SDS011;38382;53.160;7.026;2022-08-05T00:35:53;6.78;;;2.75;;
52470;SDS011;38382;53.160;7.026;2022-08-05T00:38:19;5.47;;;2.60;;
52470;SDS011;38382;53.160;7.026;2022-08-05T00:40:55;5.10;;;2.40;;
52470;SDS011;38382;53.160;7.026;2022-08-05T00:43:23;6.43;;;2.47;;
52470;SDS011;38382;53.160;7.026;2022-08-05T00:45:49;4.72;;;2.15;;
52470;SDS011;38382;53.160;7.026;2022-08-05T00:48:19;5.68;;;2.80;;
52470;SDS011;38382;53.160;7.026;2022-08-05T00:50:47;4.88;;;2.50;;
52470;SDS011;38382;53.160;7.026;2022-08-05T00:53:15;5.68;;;2.50;;
52470;SDS011;38382;53.160;7.026;2022-08-05T00:55:42;7.55;;;2.80;;
52470;SDS011;38382;53.160;7.026;2022-08-05T00:58:12;5.28;;;2.53;;
52470;SDS011;38382;53.160;7.026;2022-08-05T01:00:42;5.20;;;2.92;;
52470;SDS011;38382;53.160;7.026;2022-08-05T01:03:09;5.90;;;2.55;;
52470;SDS011;38382;53.160;7.026;2022-08-05T01:05:35;6.95;;;2.47;;
52470;SDS011;38382;53.160;7.026;2022-08-05T01:08:01;8.90;;;2.42;;
52470;SDS011;38382;53.160;7.026;2022-08-05T01:10:29;6.30;;;2.47;;
52470;SDS011;38382;53.160;7.026;2022-08-05T01:13:03;6.68;;;2.83;;
52470;SDS011;38382;53.160;7.026;2022-08-05T01:15:35;6.05;;;2.30;;
52470;SDS011;38382;53.160;7.026;2022-08-05T01:18:09;9.77;;;2.40;;
52470;SDS011;38382;53.160;7.026;2022-08-05T01:26:59;5.95;;;2.10;;
52470;SDS011;38382;53.160;7.026;2022-08-05T01:29:38;5.85;;;2.28;;
52470;SDS011;38382;53.160;7.026;2022-08-05T01:32:10;7.20;;;2.20;;
52470;SDS011;38382;53.160;7.026;2022-08-05T01:34:49;5.28;;;2.20;;
52470;SDS011;38382;53.160;7.026;2022-08-05T01:37:43;5.20;;;2.28;;
52470;SDS011;38382;53.160;7.026;2022-08-05T01:40:11;4.68;;;2.10;;
52470;SDS011;38382;53.160;7.026;2022-08-05T01:42:40;6.40;;;2.70;;
52470;SDS011;38382;53.160;7.026;2022-08-05T01:45:08;6.43;;;2.40;;
52470;SDS011;38382;53.160;7.026;2022-08-05T01:47:36;8.55;;;3.10;;
52470;SDS011;38382;53.160;7.026;2022-08-05T01:50:04;9.30;;;2.70;;
52470;SDS011;38382;53.160;7.026;2022-08-05T01:52:39;3.88;;;2.00;;
52470;SDS011;38382;53.160;7.026;2022-08-05T01:55:08;6.47;;;2.72;;
52470;SDS011;38382;53.160;7.026;2022-08-05T01:57:37;3.45;;;2.10;;
52470;SDS011;38382;53.160;7.026;2022-08-05T02:00:05;7.18;;;2.10;;
52470;SDS011;38382;53.160;7.026;2022-08-05T02:02:34;10.13;;;2.20;;
52470;SDS011;38382;53.160;7.026;2022-08-05T02:05:04;4.68;;;1.90;;
52470;SDS011;38382;53.160;7.026;2022-08-05T02:07:31;4.63;;;2.10;;
52470;SDS011;38382;53.160;7.026;2022-08-05T02:09:58;4.93;;;1.98;;
52470;SDS011;38382;53.160;7.026;2022-08-05T02:12:42;4.60;;;2.42;;
52470;SDS011;38382;53.160;7.026;2022-08-05T02:15:23;5.03;;;2.40;;
52470;SDS011;38382;53.160;7.026;2022-08-05T02:18:23;6.15;;;2.65;;
52470;SDS011;38382;53.160;7.026;2022-08-05T02:24:01;8.38;;;2.17;;
52470;SDS011;38382;53.160;7.026;2022-08-05T02:26:41;4.50;;;2.10;;
52470;SDS011;38382;53.160;7.026;2022-08-05T02:29:21;7.28;;;2.33;;
52470;SDS011;38382;53.160;7.026;2022-08-05T02:31:50;6.68;;;2.10;;
52470;SDS011;38382;53.160;7.026;2022-08-05T02:34:18;5.47;;;2.35;;
52470;SDS011;38382;53.160;7.026;2022-08-05T02:36:49;3.28;;;2.05;;
52470;SDS011;38382;53.160;7.026;2022-08-05T02:39:18;4.85;;;2.30;;
52470;SDS011;38382;53.160;7.026;2022-08-05T02:41:46;5.80;;;2.30;;
52470;SDS011;38382;53.160;7.026;2022-08-05T02:44:13;6.07;;;2.30;;
52470;SDS011;38382;53.160;7.026;2022-08-05T02:46:39;5.85;;;2.60;;
52470;SDS011;38382;53.160;7.026;2022-08-05T02:49:08;7.88;;;2.50;;
52470;SDS011;38382;53.160;7.026;2022-08-05T02:51:36;6.00;;;2.70;;
52470;SDS011;38382;53.160;7.026;2022-08-05T02:54:03;5.88;;;2.38;;
52470;SDS011;38382;53.160;7.026;2022-08-05T02:56:29;4.38;;;2.22;;
52470;SDS011;38382;53.160;7.026;2022-08-05T02:58:57;6.07;;;2.53;;
52470;SDS011;38382;53.160;7.026;2022-08-05T03:01:25;4.55;;;2.25;;
52470;SDS011;38382;53.160;7.026;2022-08-05T03:03:53;6.32;;;2.80;;
52470;SDS011;38382;53.160;7.026;2022-08-05T03:06:22;6.60;;;2.60;;
52470;SDS011;38382;53.160;7.026;2022-08-05T03:08:51;5.13;;;2.60;;
52470;SDS011;38382;53.160;7.026;2022-08-05T03:11:19;7.30;;;2.85;;
52470;SDS011;38382;53.160;7.026;2022-08-05T03:13:46;7.10;;;2.17;;
52470;SDS011;38382;53.160;7.026;2022-08-05T03:16:12;8.27;;;2.80;;
52470;SDS011;38382;53.160;7.026;2022-08-05T03:18:39;8.73;;;2.78;;
52470;SDS011;38382;53.160;7.026;2022-08-05T03:21:04;6.20;;;2.88;;
52470;SDS011;38382;53.160;7.026;2022-08-05T03:23:31;8.25;;;3.08;;
52470;SDS011;38382;53.160;7.026;2022-08-05T03:25:58;7.80;;;3.03;;
52470;SDS011;38382;53.160;7.026;2022-08-05T03:28:24;6.63;;;2.63;;
52470;SDS011;38382;53.160;7.026;2022-08-05T03:30:51;4.85;;;2.65;;
52470;SDS011;38382;53.160;7.026;2022-08-05T03:33:18;6.38;;;2.88;;
52470;SDS011;38382;53.160;7.026;2022-08-05T03:35:46;5.15;;;2.50;;
52470;SDS011;38382;53.160;7.026;2022-08-05T03:38:13;4.68;;;2.22;;
52470;SDS011;38382;53.160;7.026;2022-08-05T03:40:39;4.03;;;1.92;;
52470;SDS011;38382;53.160;7.026;2022-08-05T03:43:09;4.88;;;2.42;;
52470;SDS011;38382;53.160;7.026;2022-08-05T03:45:35;6.45;;;2.17;;
52470;SDS011;38382;53.160;7.026;2022-08-05T03:48:01;6.28;;;2.58;;
52470;SDS011;38382;53.160;7.026;2022-08-05T03:50:28;7.30;;;3.03;;
52470;SDS011;38382;53.160;7.026;2022-08-05T03:53:13;4.00;;;2.40;;
52470;SDS011;38382;53.160;7.026;2022-08-05T03:55:49;5.82;;;2.50;;
52470;SDS011;38382;53.160;7.026;2022-08-05T03:58:21;6.15;;;3.05;;
52470;SDS011;38382;53.160;7.026;2022-08-05T04:00:48;9.70;;;3.92;;
52470;SDS011;38382;53.160;7.026;2022-08-05T04:03:17;6.22;;;3.00;;
52470;SDS011;38382;53.160;7.026;2022-08-05T04:05:46;6.75;;;3.58;;
52470;SDS011;38382;53.160;7.026;2022-08-05T04:08:12;5.05;;;3.45;;
52470;SDS011;38382;53.160;7.026;2022-08-05T04:10:39;7.07;;;3.13;;
52470;SDS011;38382;53.160;7.026;2022-08-05T04:13:07;6.90;;;3.63;;
52470;SDS011;38382;53.160;7.026;2022-08-05T04:15:32;4.85;;;3.20;;
52470;SDS011;38382;53.160;7.026;2022-08-05T04:18:05;4.40;;;2.50;;
52470;SDS011;38382;53.160;7.026;2022-08-05T04:20:31;6.32;;;2.30;;
52470;SDS011;38382;53.160;7.026;2022-08-05T04:22:56;5.15;;;2.70;;
52470;SDS011;38382;53.160;7.026;2022-08-05T04:25:22;8.15;;;3.30;;
52470;SDS011;38382;53.160;7.026;2022-08-05T04:27:48;5.65;;;2.75;;
52470;SDS011;38382;53.160;7.026;2022-08-05T04:30:14;6.78;;;3.30;;
52470;SDS011;38382;53.160;7.026;2022-08-05T04:32:39;7.43;;;3.63;;
52470;SDS011;38382;53.160;7.026;2022-08-05T04:35:05;6.15;;;3.22;;
52470;SDS011;38382;53.160;7.026;2022-08-05T04:37:32;6.28;;;3.53;;
52470;SDS011;38382;53.160;7.026;2022-08-05T04:39:58;6.50;;;2.80;;
52470;SDS011;38382;53.160;7.026;2022-08-05T04:42:23;6.53;;;3.90;;
52470;SDS011;38382;53.160;7.026;2022-08-05T04:44:49;5.20;;;3.40;;
52470;SDS011;38382;53.160;7.026;2022-08-05T04:47:15;7.57;;;4.25;;
52470;SDS011;38382;53.160;7.026;2022-08-05T04:49:40;6.32;;;3.70;;
52470;SDS011;38382;53.160;7.026;2022-08-05T04:52:07;6.50;;;3.50;;
52470;SDS011;38382;53.160;7.026;2022-08-05T04:54:32;6.22;;;3.58;;
52470;SDS011;38382;53.160;7.026;2022-08-05T04:56:58;5.40;;;3.60;;
52470;SDS011;38382;53.160;7.026;2022-08-05T04:59:24;6.53;;;3.63;;
52470;SDS011;38382;53.160;7.026;2022-08-05T05:01:50;6.68;;;4.30;;
52470;SDS011;38382;53.160;7.026;2022-08-05T05:04:16;6.30;;;3.10;;
52470;SDS011;38382;53.160;7.026;2022-08-05T05:06:42;5.15;;;2.83;;
52470;SDS011;38382;53.160;7.026;2022-08-05T05:09:09;7.10;;;4.13;;
52470;SDS011;38382;53.160;7.026;2022-08-05T05:11:38;8.07;;;4.20;;
52470;SDS011;38382;53.160;7.026;2022-08-05T05:14:03;8.57;;;4.03;;
52470;SDS011;38382;53.160;7.026;2022-08-05T05:16:30;7.13;;;3.70;;
52470;SDS011;38382;53.160;7.026;2022-08-05T05:18:56;6.93;;;3.35;;
52470;SDS011;38382;53.160;7.026;2022-08-05T05:21:21;6.20;;;3.90;;
52470;SDS011;38382;53.160;7.026;2022-08-05T05:23:47;7.47;;;4.13;;
52470;SDS011;38382;53.160;7.026;2022-08-05T05:26:13;6.90;;;3.55;;
52470;SDS011;38382;53.160;7.026;2022-08-05T05:28:39;8.30;;;3.55;;
52470;SDS011;38382;53.160;7.026;2022-08-05T05:31:04;6.80;;;3.30;;
52470;SDS011;38382;53.160;7.026;2022-08-05T05:33:30;7.95;;;3.33;;
52470;SDS011;38382;53.160;7.026;2022-08-05T05:35:56;10.07;;;3.88;;
52470;SDS011;38382;53.160;7.026;2022-08-05T05:38:21;13.07;;;4.20;;
52470;SDS011;38382;53.160;7.026;2022-08-05T05:40:47;4.85;;;2.80;;
52470;SDS011;38382;53.160;7.026;2022-08-05T05:43:13;8.90;;;4.05;;
52470;SDS011;38382;53.160;7.026;2022-08-05T05:45:38;6.28;;;2.90;;
52470;SDS011;38382;53.160;7.026;2022-08-05T05:48:04;7.80;;;3.60;;
52470;SDS011;38382;53.160;7.026;2022-08-05T05:50:31;10.52;;;3.75;;
52470;SDS011;38382;53.160;7.026;2022-08-05T05:52:58;6.75;;;3.03;;
52470;SDS011;38382;53.160;7.026;2022-08-05T05:55:23;4.38;;;2.88;;
52470;SDS011;38382;53.160;7.026;2022-08-05T05:57:49;7.88;;;3.50;;
52470;SDS011;38382;53.160;7.026;2022-08-05T06:00:16;6.43;;;3.00;;
52470;SDS011;38382;53.160;7.026;2022-08-05T06:02:43;5.35;;;3.17;;
52470;SDS011;38382;53.160;7.026;2022-08-05T06:05:13;7.03;;;3.15;;
52470;SDS011;38382;53.160;7.026;2022-08-05T06:07:40;6.82;;;3.17;;
52470;SDS011;38382;53.160;7.026;2022-08-05T06:10:07;3.50;;;2.50;;
52470;SDS011;38382;53.160;7.026;2022-08-05T06:12:34;7.07;;;3.25;;
52470;SDS011;38382;53.160;7.026;2022-08-05T06:15:01;6.18;;;2.88;;
52470;SDS011;38382;53.160;7.026;2022-08-05T06:17:28;4.13;;;2.53;;
52470;SDS011;38382;53.160;7.026;2022-08-05T06:19:53;5.57;;;2.40;;
52470;SDS011;38382;53.160;7.026;2022-08-05T06:22:23;4.43;;;2.50;;
52470;SDS011;38382;53.160;7.026;2022-08-05T06:27:17;4.63;;;2.53;;
52470;SDS011;38382;53.160;7.026;2022-08-05T06:29:43;6.55;;;3.00;;
52470;SDS011;38382;53.160;7.026;2022-08-05T06:32:09;4.28;;;2.58;;
52470;SDS011;38382;53.160;7.026;2022-08-05T06:34:35;5.35;;;2.60;;
52470;SDS011;38382;53.160;7.026;2022-08-05T06:39:32;4.90;;;2.83;;
52470;SDS011;38382;53.160;7.026;2022-08-05T06:41:58;6.32;;;2.72;;
52470;SDS011;38382;53.160;7.026;2022-08-05T06:44:26;7.55;;;3.33;;
52470;SDS011;38382;53.160;7.026;2022-08-05T06:46:52;5.22;;;2.47;;
52470;SDS011;38382;53.160;7.026;2022-08-05T06:49:18;5.20;;;2.58;;
52470;SDS011;38382;53.160;7.026;2022-08-05T06:51:44;5.18;;;2.50;;
52470;SDS011;38382;53.160;7.026;2022-08-05T06:54:10;5.25;;;2.92;;
52470;SDS011;38382;53.160;7.026;2022-08-05T06:56:36;7.13;;;3.42;;
52470;SDS011;38382;53.160;7.026;2022-08-05T06:59:02;5.22;;;2.65;;
52470;SDS011;38382;53.160;7.026;2022-08-05T07:01:29;4.20;;;2.65;;
52470;SDS011;38382;53.160;7.026;2022-08-05T07:03:55;6.45;;;3.05;;
52470;SDS011;38382;53.160;7.026;2022-08-05T07:06:20;6.95;;;2.85;;
52470;SDS011;38382;53.160;7.026;2022-08-05T07:08:47;4.88;;;2.60;;
52470;SDS011;38382;53.160;7.026;2022-08-05T07:11:13;5.38;;;2.83;;
52470;SDS011;38382;53.160;7.026;2022-08-05T07:13:49;4.45;;;2.92;;
52470;SDS011;38382;53.160;7.026;2022-08-05T07:16:36;8.50;;;3.50;;
52470;SDS011;38382;53.160;7.026;2022-08-05T07:19:14;6.07;;;3.38;;
52470;SDS011;38382;53.160;7.026;2022-08-05T07:21:43;8.25;;;3.30;;
52470;SDS011;38382;53.160;7.026;2022-08-05T07:24:10;6.97;;;3.22;;
52470;SDS011;38382;53.160;7.026;2022-08-05T07:26:36;8.18;;;3.47;;
52470;SDS011;38382;53.160;7.026;2022-08-05T07:29:02;6.68;;;3.05;;
52470;SDS011;38382;53.160;7.026;2022-08-05T07:31:28;6.45;;;3.33;;
52470;SDS011;38382;53.160;7.026;2022-08-05T07:33:53;6.32;;;2.55;;
52470;SDS011;38382;53.160;7.026;2022-08-05T07:36:19;7.20;;;2.92;;
52470;SDS011;38382;53.160;7.026;2022-08-05T07:38:45;9.00;;;2.80;;
52470;SDS011;38382;53.160;7.026;2022-08-05T07:41:13;11.20;;;3.13;;
52470;SDS011;38382;53.160;7.026;2022-08-05T07:43:41;5.47;;;2.80;;
52470;SDS011;38382;53.160;7.026;2022-08-05T07:46:09;5.75;;;2.95;;
52470;SDS011;38382;53.160;7.026;2022-08-05T07:48:38;5.88;;;2.70;;
52470;SDS011;38382;53.160;7.026;2022-08-05T07:51:12;5.93;;;2.70;;
52470;SDS011;38382;53.160;7.026;2022-08-05T07:53:40;4.15;;;2.30;;
52470;SDS011;38382;53.160;7.026;2022-08-05T07:56:08;7.07;;;2.17;;
52470;SDS011;38382;53.160;7.026;2022-08-05T07:58:34;6.22;;;1.98;;
52470;SDS011;38382;53.160;7.026;2022-08-05T08:01:21;4.07;;;2.17;;
52470;SDS011;38382;53.160;7.026;2022-08-05T08:04:53;4.82;;;1.75;;
52470;SDS011;38382;53.160;7.026;2022-08-05T08:08:11;6.50;;;1.90;;
52470;SDS011;38382;53.160;7.026;2022-08-05T08:14:41;2.38;;;1.42;;
52470;SDS011;38382;53.160;7.026;2022-08-05T08:17:07;3.45;;;1.50;;
52470;SDS011;38382;53.160;7.026;2022-08-05T08:27:12;3.53;;;1.60;;
52470;SDS011;38382;53.160;7.026;2022-08-05T08:30:51;4.90;;;1.83;;
52470;SDS011;38382;53.160;7.026;2022-08-05T08:33:43;6.47;;;2.25;;
52470;SDS011;38382;53.160;7.026;2022-08-05T08:37:19;4.30;;;1.63;;
52470;SDS011;38382;53.160;7.026;2022-08-05T08:39:45;2.28;;;1.30;;
52470;SDS011;38382;53.160;7.026;2022-08-05T08:42:21;5.53;;;1.45;;
52470;SDS011;38382;53.160;7.026;2022-08-05T08:44:48;2.85;;;1.40;;
52470;SDS011;38382;53.160;7.026;2022-08-05T08:47:21;4.68;;;1.60;;
52470;SDS011;38382;53.160;7.026;2022-08-05T08:49:52;2.75;;;1.27;;
52470;SDS011;38382;53.160;7.026;2022-08-05T08:52:22;5.68;;;1.52;;
52470;SDS011;38382;53.160;7.026;2022-08-05T08:55:03;4.07;;;1.20;;
52470;SDS011;38382;53.160;7.026;2022-08-05T08:57:59;3.05;;;1.30;;
52470;SDS011;38382;53.160;7.026;2022-08-05T09:00:30;5.10;;;1.50;;
52470;SDS011;38382;53.160;7.026;2022-08-05T09:02:57;2.90;;;1.27;;
52470;SDS011;38382;53.160;7.026;2022-08-05T09:05:39;2.92;;;1.30;;
52470;SDS011;38382;53.160;7.026;2022-08-05T09:08:13;9.93;;;1.50;;
52470;SDS011;38382;53.160;7.026;2022-08-05T09:10:40;11.95;;;1.50;;
52470;SDS011;38382;53.160;7.026;2022-08-05T09:13:17;4.35;;;1.30;;
52470;SDS011;38382;53.160;7.026;2022-08-05T09:15:45;3.72;;;1.02;;
52470;SDS011;38382;53.160;7.026;2022-08-05T09:18:11;4.68;;;1.35;;
52470;SDS011;38382;53.160;7.026;2022-08-05T09:20:37;4.80;;;1.30;;
52470;SDS011;38382;53.160;7.026;2022-08-05T09:23:10;2.58;;;1.20;;
52470;SDS011;38382;53.160;7.026;2022-08-05T09:25:43;3.65;;;1.25;;
52470;SDS011;38382;53.160;7.026;2022-08-05T09:28:30;5.45;;;1.40;;
52470;SDS011;38382;53.160;7.026;2022-08-05T09:30:59;3.67;;;1.50;;
52470;SDS011;38382;53.160;7.026;2022-08-05T09:33:45;3.47;;;1.40;;
52470;SDS011;38382;53.160;7.026;2022-08-05T09:36:18;5.78;;;1.48;;
52470;SDS011;38382;53.160;7.026;2022-08-05T09:38:55;3.35;;;1.52;;
52470;SDS011;38382;53.160;7.026;2022-08-05T09:46:29;2.00;;;1.10;;
52470;SDS011;38382;53.160;7.026;2022-08-05T09:52:55;2.90;;;1.50;;
52470;SDS011;38382;53.160;7.026;2022-08-05T09:55:36;5.82;;;1.17;;
52470;SDS011;38382;53.160;7.026;2022-08-05T09:58:08;1.92;;;1.00;;
52470;SDS011;38382;53.160;7.026;2022-08-05T10:00:35;3.88;;;1.40;;
52470;SDS011;38382;53.160;7.026;2022-08-05T10:03:07;5.80;;;1.30;;
52470;SDS011;38382;53.160;7.026;2022-08-05T10:05:34;4.65;;;1.10;;
52470;SDS011;38382;53.160;7.026;2022-08-05T10:08:02;2.05;;;0.90;;
52470;SDS011;38382;53.160;7.026;2022-08-05T10:10:36;3.08;;;0.95;;
52470;SDS011;38382;53.160;7.026;2022-08-05T10:13:24;2.42;;;1.10;;
52470;SDS011;38382;53.160;7.026;2022-08-05T10:15:54;2.40;;;0.90;;
52470;SDS011;38382;53.160;7.026;2022-08-05T10:18:22;4.70;;;1.10;;
52470;SDS011;38382;53.160;7.026;2022-08-05T10:20:51;3.78;;;1.25;;
52470;SDS011;38382;53.160;7.026;2022-08-05T10:23:24;4.03;;;1.10;;
52470;SDS011;38382;53.160;7.026;2022-08-05T10:25:55;85.63;;;6.55;;
52470;SDS011;38382;53.160;7.026;2022-08-05T10:28:28;367.80;;;20.88;;
52470;SDS011;38382;53.160;7.026;2022-08-05T10:31:03;381.27;;;22.98;;
52470;SDS011;38382;53.160;7.026;2022-08-05T10:33:31;101.25;;;6.88;;
52470;SDS011;38382;53.160;7.026;2022-08-05T10:36:05;57.35;;;4.70;;
52470;SDS011;38382;53.160;7.026;2022-08-05T10:38:31;15.30;;;2.08;;
52470;SDS011;38382;53.160;7.026;2022-08-05T10:41:07;130.55;;;8.63;;
52470;SDS011;38382;53.160;7.026;2022-08-05T10:43:56;21.02;;;2.08;;
52470;SDS011;38382;53.160;7.026;2022-08-05T10:46:41;201.73;;;13.13;;
52470;SDS011;38382;53.160;7.026;2022-08-05T10:49:10;129.73;;;8.73;;
52470;SDS011;38382;53.160;7.026;2022-08-05T10:55:04;10.75;;;1.60;;
52470;SDS011;38382;53.160;7.026;2022-08-05T10:57:31;18.05;;;1.88;;
52470;SDS011;38382;53.160;7.026;2022-08-05T11:00:18;10.07;;;1.33;;
52470;SDS011;38382;53.160;7.026;2022-08-05T11:05:31;10.73;;;1.60;;
52470;SDS011;38382;53.160;7.026;2022-08-05T11:07:58;6.32;;;1.05;;
52470;SDS011;38382;53.160;7.026;2022-08-05T11:10:44;3.63;;;1.00;;
52470;SDS011;38382;53.160;7.026;2022-08-05T11:13:36;7.05;;;1.10;;
52470;SDS011;38382;53.160;7.026;2022-08-05T11:16:21;3.97;;;1.35;;
52470;SDS011;38382;53.160;7.026;2022-08-05T11:21:33;3.35;;;1.10;;
52470;SDS011;38382;53.160;7.026;2022-08-05T11:24:05;4.13;;;1.23;;
52470;SDS011;38382;53.160;7.026;2022-08-05T11:26:33;2.75;;;0.70;;
52470;SDS011;38382;53.160;7.026;2022-08-05T11:29:02;4.13;;;0.95;;
52470;SDS011;38382;53.160;7.026;2022-08-05T11:31:29;4.00;;;0.70;;
52470;SDS011;38382;53.160;7.026;2022-08-05T11:33:57;1.98;;;0.80;;
52470;SDS011;38382;53.160;7.026;2022-08-05T11:39:14;1.80;;;0.70;;
52470;SDS011;38382;53.160;7.026;2022-08-05T11:41:48;1.00;;;0.60;;
52470;SDS011;38382;53.160;7.026;2022-08-05T11:44:15;2.28;;;0.70;;
52470;SDS011;38382;53.160;7.026;2022-08-05T11:46:48;2.88;;;0.82;;
52470;SDS011;38382;53.160;7.026;2022-08-05T11:49:16;5.22;;;0.98;;
52470;SDS011;38382;53.160;7.026;2022-08-05T11:51:46;1.92;;;0.70;;
52470;SDS011;38382;53.160;7.026;2022-08-05T11:54:20;5.50;;;0.83;;
52470;SDS011;38382;53.160;7.026;2022-08-05T11:56:53;1.88;;;0.63;;
52470;SDS011;38382;53.160;7.026;2022-08-05T11:59:22;2.60;;;1.13;;
52470;SDS011;38382;53.160;7.026;2022-08-05T12:02:02;1.02;;;0.60;;
52470;SDS011;38382;53.160;7.026;2022-08-05T12:04:39;6.07;;;0.75;;
52470;SDS011;38382;53.160;7.026;2022-08-05T12:07:11;2.38;;;0.50;;
52470;SDS011;38382;53.160;7.026;2022-08-05T12:09:39;4.13;;;0.80;;
52470;SDS011;38382;53.160;7.026;2022-08-05T12:12:06;2.60;;;0.70;;
52470;SDS011;38382;53.160;7.026;2022-08-05T12:14:36;2.85;;;0.70;;
52470;SDS011;38382;53.160;7.026;2022-08-05T12:17:11;2.45;;;0.73;;
52470;SDS011;38382;53.160;7.026;2022-08-05T12:19:42;4.85;;;0.93;;
52470;SDS011;38382;53.160;7.026;2022-08-05T12:22:13;5.78;;;1.00;;
52470;SDS011;38382;53.160;7.026;2022-08-05T12:24:41;1.27;;;0.70;;
52470;SDS011;38382;53.160;7.026;2022-08-05T12:27:25;2.75;;;0.77;;
52470;SDS011;38382;53.160;7.026;2022-08-05T12:30:24;5.15;;;1.17;;
52470;SDS011;38382;53.160;7.026;2022-08-05T12:32:58;3.22;;;0.80;;
52470;SDS011;38382;53.160;7.026;2022-08-05T12:35:45;2.25;;;0.90;;
52470;SDS011;38382;53.160;7.026;2022-08-05T12:38:14;3.85;;;0.85;;
52470;SDS011;38382;53.160;7.026;2022-08-05T12:40:50;6.00;;;0.77;;
52470;SDS011;38382;53.160;7.026;2022-08-05T12:43:17;2.53;;;0.80;;
52470;SDS011;38382;53.160;7.026;2022-08-05T12:45:53;1.92;;;0.68;;
52470;SDS011;38382;53.160;7.026;2022-08-05T12:48:20;1.35;;;0.70;;
52470;SDS011;38382;53.160;7.026;2022-08-05T12:53:42;1.83;;;1.02;;
52470;SDS011;38382;53.160;7.026;2022-08-05T12:56:16;1.17;;;0.57;;
52470;SDS011;38382;53.160;7.026;2022-08-05T12:58:44;1.98;;;0.60;;
52470;SDS011;38382;53.160;7.026;2022-08-05T13:01:12;3.72;;;0.80;;
52470;SDS011;38382;53.160;7.026;2022-08-05T13:03:38;2.97;;;0.82;;
52470;SDS011;38382;53.160;7.026;2022-08-05T13:06:11;4.40;;;0.88;;
52470;SDS011;38382;53.160;7.026;2022-08-05T13:08:40;2.47;;;0.77;;
52470;SDS011;38382;53.160;7.026;2022-08-05T13:11:06;2.75;;;0.80;;
52470;SDS011;38382;53.160;7.026;2022-08-05T13:13:32;1.05;;;0.70;;
52470;SDS011;38382;53.160;7.026;2022-08-05T13:16:10;3.92;;;0.80;;
52470;SDS011;38382;53.160;7.026;2022-08-05T13:18:37;2.47;;;0.70;;
52470;SDS011;38382;53.160;7.026;2022-08-05T13:21:03;3.95;;;0.95;;
52470;SDS011;38382;53.160;7.026;2022-08-05T13:23:29;5.28;;;1.08;;
52470;SDS011;38382;53.160;7.026;2022-08-05T13:25:55;5.03;;;0.85;;
52470;SDS011;38382;53.160;7.026;2022-08-05T13:28:21;2.80;;;0.90;;
52470;SDS011;38382;53.160;7.026;2022-08-05T13:30:50;2.70;;;0.90;;
52470;SDS011;38382;53.160;7.026;2022-08-05T13:33:18;2.28;;;1.00;;
52470;SDS011;38382;53.160;7.026;2022-08-05T13:35:47;2.30;;;0.77;;
52470;SDS011;38382;53.160;7.026;2022-08-05T13:38:18;4.13;;;0.90;;
52470;SDS011;38382;53.160;7.026;2022-08-05T13:40:44;1.17;;;0.70;;
52470;SDS011;38382;53.160;7.026;2022-08-05T13:43:10;2.97;;;0.82;;
52470;SDS011;38382;53.160;7.026;2022-08-05T13:45:36;1.85;;;0.65;;
52470;SDS011;38382;53.160;7.026;2022-08-05T13:48:02;3.53;;;0.85;;
52470;SDS011;38382;53.160;7.026;2022-08-05T13:50:28;2.08;;;0.85;;
52470;SDS011;38382;53.160;7.026;2022-08-05T13:52:56;1.42;;;0.70;;
52470;SDS011;38382;53.160;7.026;2022-08-05T13:55:22;9.63;;;1.05;;
52470;SDS011;38382;53.160;7.026;2022-08-05T13:57:48;2.90;;;1.00;;
52470;SDS011;38382;53.160;7.026;2022-08-05T14:00:13;4.93;;;0.70;;
52470;SDS011;38382;53.160;7.026;2022-08-05T14:02:39;3.30;;;0.88;;
52470;SDS011;38382;53.160;7.026;2022-08-05T14:05:05;113.03;;;13.57;;
52470;SDS011;38382;53.160;7.026;2022-08-05T14:07:41;4.50;;;1.40;;
52470;SDS011;38382;53.160;7.026;2022-08-05T14:10:09;17.40;;;3.30;;
52470;SDS011;38382;53.160;7.026;2022-08-05T14:12:40;3.38;;;0.85;;
52470;SDS011;38382;53.160;7.026;2022-08-05T14:15:09;1.98;;;0.80;;
52470;SDS011;38382;53.160;7.026;2022-08-05T14:17:36;2.33;;;0.90;;
52470;SDS011;38382;53.160;7.026;2022-08-05T14:20:02;4.05;;;0.90;;
52470;SDS011;38382;53.160;7.026;2022-08-05T14:22:29;1.80;;;0.70;;
52470;SDS011;38382;53.160;7.026;2022-08-05T14:24:55;2.10;;;0.90;;
52470;SDS011;38382;53.160;7.026;2022-08-05T14:27:20;2.85;;;0.80;;
52470;SDS011;38382;53.160;7.026;2022-08-05T14:29:46;3.60;;;1.10;;
52470;SDS011;38382;53.160;7.026;2022-08-05T14:32:12;3.65;;;1.10;;
52470;SDS011;38382;53.160;7.026;2022-08-05T14:34:38;3.22;;;0.70;;
52470;SDS011;38382;53.160;7.026;2022-08-05T14:39:32;2.42;;;0.98;;
52470;SDS011;38382;53.160;7.026;2022-08-05T14:41:58;1.50;;;0.80;;
52470;SDS011;38382;53.160;7.026;2022-08-05T14:44:26;1.85;;;0.77;;
52470;SDS011;38382;53.160;7.026;2022-08-05T14:46:52;2.33;;;0.70;;
52470;SDS011;38382;53.160;7.026;2022-08-05T14:49:18;2.25;;;0.90;;
52470;SDS011;38382;53.160;7.026;2022-08-05T14:51:44;3.67;;;0.98;;
52470;SDS011;38382;53.160;7.026;2022-08-05T14:54:12;3.72;;;1.05;;
52470;SDS011;38382;53.160;7.026;2022-08-05T14:56:40;3.55;;;0.90;;
52470;SDS011;38382;53.160;7.026;2022-08-05T14:59:06;6.47;;;0.90;;
52470;SDS011;38382;53.160;7.026;2022-08-05T15:01:32;3.03;;;1.10;;
52470;SDS011;38382;53.160;7.026;2022-08-05T15:03:57;7.43;;;1.10;;
52470;SDS011;38382;53.160;7.026;2022-08-05T15:06:26;2.72;;;0.82;;
52470;SDS011;38382;53.160;7.026;2022-08-05T15:09:05;4.35;;;1.35;;
52470;SDS011;38382;53.160;7.026;2022-08-05T15:11:34;2.90;;;0.88;;
52470;SDS011;38382;53.160;7.026;2022-08-05T15:14:01;5.00;;;1.35;;
52470;SDS011;38382;53.160;7.026;2022-08-05T15:16:30;6.28;;;1.30;;
52470;SDS011;38382;53.160;7.026;2022-08-05T15:18:56;4.90;;;1.10;;
52470;SDS011;38382;53.160;7.026;2022-08-05T15:21:45;1.30;;;0.80;;
52470;SDS011;38382;53.160;7.026;2022-08-05T15:24:13;4.20;;;1.05;;
52470;SDS011;38382;53.160;7.026;2022-08-05T15:26:41;2.15;;;0.77;;
52470;SDS011;38382;53.160;7.026;2022-08-05T15:29:07;3.03;;;1.00;;
52470;SDS011;38382;53.160;7.026;2022-08-05T15:31:42;2.83;;;0.90;;
52470;SDS011;38382;53.160;7.026;2022-08-05T15:34:09;4.30;;;1.05;;
52470;SDS011;38382;53.160;7.026;2022-08-05T15:36:35;3.55;;;1.20;;
52470;SDS011;38382;53.160;7.026;2022-08-05T15:39:00;3.97;;;1.00;;
52470;SDS011;38382;53.160;7.026;2022-08-05T15:41:26;3.70;;;1.00;;
52470;SDS011;38382;53.160;7.026;2022-08-05T15:43:52;3.17;;;0.98;;
52470;SDS011;38382;53.160;7.026;2022-08-05T15:46:18;2.67;;;0.88;;
52470;SDS011;38382;53.160;7.026;2022-08-05T15:48:47;1.73;;;0.80;;
52470;SDS011;38382;53.160;7.026;2022-08-05T15:51:13;3.05;;;0.90;;
52470;SDS011;38382;53.160;7.026;2022-08-05T15:53:39;2.30;;;0.90;;
52470;SDS011;38382;53.160;7.026;2022-08-05T15:56:07;1.73;;;0.70;;